sensor_id;sensor_type;location;lat;lon;timestamp;P1;durP1;ratioP1;P2;durP2;ratioP2
3779;SDS011;1905;52.482;9.802;2022-12-18T00:01:13;9.03;;;5.80;;
3779;SDS011;1905;52.482;9.802;2022-12-18T00:03:42;5.07;;;4.50;;
3779;SDS011;1905;52.482;9.802;2022-12-18T00:06:13;10.90;;;6.27;;
3779;SDS011;1905;52.482;9.802;2022-12-18T00:08:41;12.23;;;7.70;;
3779;SDS011;1905;52.482;9.802;2022-12-18T00:11:11;11.70;;;6.40;;
3779;SDS011;1905;52.482;9.802;2022-12-18T00:13:41;7.03;;;6.17;;
3779;SDS011;1905;52.482;9.802;2022-12-18T00:16:10;8.93;;;5.50;;
3779;SDS011;1905;52.482;9.802;2022-12-18T00:18:39;23.20;;;5.30;;
3779;SDS011;1905;52.482;9.802;2022-12-18T00:21:09;12.13;;;5.60;;
3779;SDS011;1905;52.482;9.802;2022-12-18T00:23:38;13.13;;;6.57;;
3779;SDS011;1905;52.482;9.802;2022-12-18T00:26:11;5.70;;;4.80;;
3779;SDS011;1905;52.482;9.802;2022-12-18T00:28:42;9.77;;;7.70;;
3779;SDS011;1905;52.482;9.802;2022-12-18T00:31:10;6.57;;;5.53;;
3779;SDS011;1905;52.482;9.802;2022-12-18T00:33:39;6.23;;;4.87;;
3779;SDS011;1905;52.482;9.802;2022-12-18T00:36:09;15.73;;;8.20;;
3779;SDS011;1905;52.482;9.802;2022-12-18T00:38:38;5.00;;;4.50;;
3779;SDS011;1905;52.482;9.802;2022-12-18T00:41:07;8.23;;;6.03;;
3779;SDS011;1905;52.482;9.802;2022-12-18T00:43:37;14.60;;;7.77;;
3779;SDS011;1905;52.482;9.802;2022-12-18T00:46:05;7.90;;;4.97;;
3779;SDS011;1905;52.482;9.802;2022-12-18T00:48:33;10.17;;;5.43;;
3779;SDS011;1905;52.482;9.802;2022-12-18T00:51:00;6.03;;;4.60;;
3779;SDS011;1905;52.482;9.802;2022-12-18T00:53:28;9.37;;;5.30;;
3779;SDS011;1905;52.482;9.802;2022-12-18T00:55:56;18.40;;;7.10;;
3779;SDS011;1905;52.482;9.802;2022-12-18T00:58:23;8.67;;;5.60;;
3779;SDS011;1905;52.482;9.802;2022-12-18T01:00:52;17.03;;;7.13;;
3779;SDS011;1905;52.482;9.802;2022-12-18T01:03:20;11.30;;;6.97;;
3779;SDS011;1905;52.482;9.802;2022-12-18T01:05:47;11.83;;;6.17;;
3779;SDS011;1905;52.482;9.802;2022-12-18T01:08:17;5.67;;;5.10;;
3779;SDS011;1905;52.482;9.802;2022-12-18T01:10:45;7.57;;;5.37;;
3779;SDS011;1905;52.482;9.802;2022-12-18T01:13:12;5.13;;;4.10;;
3779;SDS011;1905;52.482;9.802;2022-12-18T01:15:40;11.73;;;7.03;;
3779;SDS011;1905;52.482;9.802;2022-12-18T01:18:11;8.47;;;6.10;;
3779;SDS011;1905;52.482;9.802;2022-12-18T01:20:38;4.63;;;4.23;;
3779;SDS011;1905;52.482;9.802;2022-12-18T01:23:06;7.90;;;5.80;;
3779;SDS011;1905;52.482;9.802;2022-12-18T01:25:35;9.03;;;5.83;;
3779;SDS011;1905;52.482;9.802;2022-12-18T01:28:03;8.43;;;7.37;;
3779;SDS011;1905;52.482;9.802;2022-12-18T01:30:31;8.07;;;7.10;;
3779;SDS011;1905;52.482;9.802;2022-12-18T01:32:58;14.53;;;7.10;;
3779;SDS011;1905;52.482;9.802;2022-12-18T01:35:27;6.00;;;3.37;;
3779;SDS011;1905;52.482;9.802;2022-12-18T01:37:55;8.03;;;6.37;;
3779;SDS011;1905;52.482;9.802;2022-12-18T01:40:23;7.70;;;6.90;;
3779;SDS011;1905;52.482;9.802;2022-12-18T01:42:51;13.77;;;6.33;;
3779;SDS011;1905;52.482;9.802;2022-12-18T01:45:23;11.97;;;6.20;;
3779;SDS011;1905;52.482;9.802;2022-12-18T01:47:54;11.70;;;6.43;;
3779;SDS011;1905;52.482;9.802;2022-12-18T01:50:25;9.73;;;3.43;;
3779;SDS011;1905;52.482;9.802;2022-12-18T01:52:58;10.47;;;6.20;;
3779;SDS011;1905;52.482;9.802;2022-12-18T01:55:29;10.53;;;5.70;;
3779;SDS011;1905;52.482;9.802;2022-12-18T01:57:59;8.13;;;5.70;;
3779;SDS011;1905;52.482;9.802;2022-12-18T02:00:27;8.53;;;5.17;;
3779;SDS011;1905;52.482;9.802;2022-12-18T02:02:56;10.60;;;4.80;;
3779;SDS011;1905;52.482;9.802;2022-12-18T02:05:27;8.50;;;5.80;;
3779;SDS011;1905;52.482;9.802;2022-12-18T02:08:03;7.70;;;5.17;;
3779;SDS011;1905;52.482;9.802;2022-12-18T02:10:41;13.83;;;5.40;;
3779;SDS011;1905;52.482;9.802;2022-12-18T02:13:18;7.10;;;4.97;;
3779;SDS011;1905;52.482;9.802;2022-12-18T02:15:53;8.73;;;6.93;;
3779;SDS011;1905;52.482;9.802;2022-12-18T02:18:26;6.67;;;5.20;;
3779;SDS011;1905;52.482;9.802;2022-12-18T02:20:59;9.17;;;4.77;;
3779;SDS011;1905;52.482;9.802;2022-12-18T02:23:39;9.07;;;5.07;;
3779;SDS011;1905;52.482;9.802;2022-12-18T02:26:17;8.93;;;5.87;;
3779;SDS011;1905;52.482;9.802;2022-12-18T02:32:44;5.40;;;3.70;;
3779;SDS011;1905;52.482;9.802;2022-12-18T02:35:16;8.80;;;5.03;;
3779;SDS011;1905;52.482;9.802;2022-12-18T02:37:47;9.77;;;4.83;;
3779;SDS011;1905;52.482;9.802;2022-12-18T02:40:15;9.10;;;5.13;;
3779;SDS011;1905;52.482;9.802;2022-12-18T02:42:45;7.80;;;4.10;;
3779;SDS011;1905;52.482;9.802;2022-12-18T02:45:16;5.17;;;3.83;;
3779;SDS011;1905;52.482;9.802;2022-12-18T02:47:46;8.63;;;6.27;;
3779;SDS011;1905;52.482;9.802;2022-12-18T02:50:17;11.23;;;6.40;;
3779;SDS011;1905;52.482;9.802;2022-12-18T02:52:55;11.30;;;4.67;;
3779;SDS011;1905;52.482;9.802;2022-12-18T02:55:36;9.30;;;6.37;;
3779;SDS011;1905;52.482;9.802;2022-12-18T02:58:17;5.93;;;5.03;;
3779;SDS011;1905;52.482;9.802;2022-12-18T03:00:52;20.53;;;6.30;;
3779;SDS011;1905;52.482;9.802;2022-12-18T03:03:28;8.67;;;5.70;;
3779;SDS011;1905;52.482;9.802;2022-12-18T03:06:00;8.63;;;4.90;;
3779;SDS011;1905;52.482;9.802;2022-12-18T03:08:33;9.43;;;3.93;;
3779;SDS011;1905;52.482;9.802;2022-12-18T03:11:05;8.20;;;4.90;;
3779;SDS011;1905;52.482;9.802;2022-12-18T03:13:39;6.20;;;4.97;;
3779;SDS011;1905;52.482;9.802;2022-12-18T03:16:12;4.80;;;4.30;;
3779;SDS011;1905;52.482;9.802;2022-12-18T03:18:45;7.63;;;5.77;;
3779;SDS011;1905;52.482;9.802;2022-12-18T03:21:17;7.33;;;4.97;;
3779;SDS011;1905;52.482;9.802;2022-12-18T03:23:47;13.40;;;6.30;;
3779;SDS011;1905;52.482;9.802;2022-12-18T03:26:21;10.13;;;4.93;;
3779;SDS011;1905;52.482;9.802;2022-12-18T03:28:59;11.73;;;5.27;;
3779;SDS011;1905;52.482;9.802;2022-12-18T03:31:33;5.70;;;4.97;;
3779;SDS011;1905;52.482;9.802;2022-12-18T03:34:03;9.20;;;5.03;;
3779;SDS011;1905;52.482;9.802;2022-12-18T03:36:41;10.00;;;4.90;;
3779;SDS011;1905;52.482;9.802;2022-12-18T03:39:13;10.03;;;4.73;;
3779;SDS011;1905;52.482;9.802;2022-12-18T03:41:49;5.57;;;4.60;;
3779;SDS011;1905;52.482;9.802;2022-12-18T03:44:34;7.87;;;5.17;;
3779;SDS011;1905;52.482;9.802;2022-12-18T03:47:11;4.73;;;4.27;;
3779;SDS011;1905;52.482;9.802;2022-12-18T03:49:45;10.00;;;5.53;;
3779;SDS011;1905;52.482;9.802;2022-12-18T03:52:20;5.27;;;3.93;;
3779;SDS011;1905;52.482;9.802;2022-12-18T03:54:53;10.43;;;6.43;;
3779;SDS011;1905;52.482;9.802;2022-12-18T03:57:24;6.93;;;3.37;;
3779;SDS011;1905;52.482;9.802;2022-12-18T03:59:58;5.60;;;4.20;;
3779;SDS011;1905;52.482;9.802;2022-12-18T04:02:41;9.07;;;4.73;;
3779;SDS011;1905;52.482;9.802;2022-12-18T04:05:17;3.23;;;2.93;;
3779;SDS011;1905;52.482;9.802;2022-12-18T04:07:48;7.10;;;6.53;;
3779;SDS011;1905;52.482;9.802;2022-12-18T04:10:17;9.43;;;3.20;;
3779;SDS011;1905;52.482;9.802;2022-12-18T04:12:46;5.47;;;3.77;;
3779;SDS011;1905;52.482;9.802;2022-12-18T04:15:19;9.07;;;4.30;;
3779;SDS011;1905;52.482;9.802;2022-12-18T04:17:47;9.10;;;4.67;;
3779;SDS011;1905;52.482;9.802;2022-12-18T04:20:19;10.93;;;5.00;;
3779;SDS011;1905;52.482;9.802;2022-12-18T04:22:47;4.17;;;3.80;;
3779;SDS011;1905;52.482;9.802;2022-12-18T04:25:17;4.90;;;4.37;;
3779;SDS011;1905;52.482;9.802;2022-12-18T04:27:57;3.43;;;3.10;;
3779;SDS011;1905;52.482;9.802;2022-12-18T04:30:25;6.13;;;4.50;;
3779;SDS011;1905;52.482;9.802;2022-12-18T04:32:53;7.10;;;3.53;;
3779;SDS011;1905;52.482;9.802;2022-12-18T04:35:21;5.10;;;3.83;;
3779;SDS011;1905;52.482;9.802;2022-12-18T04:37:49;7.97;;;5.57;;
3779;SDS011;1905;52.482;9.802;2022-12-18T04:40:17;10.03;;;5.63;;
3779;SDS011;1905;52.482;9.802;2022-12-18T04:42:46;5.27;;;4.87;;
3779;SDS011;1905;52.482;9.802;2022-12-18T04:45:14;5.03;;;3.70;;
3779;SDS011;1905;52.482;9.802;2022-12-18T04:47:43;10.20;;;6.23;;
3779;SDS011;1905;52.482;9.802;2022-12-18T04:50:10;4.63;;;2.80;;
3779;SDS011;1905;52.482;9.802;2022-12-18T04:52:38;6.47;;;4.60;;
3779;SDS011;1905;52.482;9.802;2022-12-18T04:55:06;9.63;;;4.50;;
3779;SDS011;1905;52.482;9.802;2022-12-18T04:57:34;7.40;;;5.30;;
3779;SDS011;1905;52.482;9.802;2022-12-18T05:00:02;8.57;;;4.20;;
3779;SDS011;1905;52.482;9.802;2022-12-18T05:02:32;9.37;;;4.90;;
3779;SDS011;1905;52.482;9.802;2022-12-18T05:05:01;5.17;;;3.43;;
3779;SDS011;1905;52.482;9.802;2022-12-18T05:07:29;4.60;;;4.10;;
3779;SDS011;1905;52.482;9.802;2022-12-18T05:09:56;6.40;;;4.10;;
3779;SDS011;1905;52.482;9.802;2022-12-18T05:12:24;7.83;;;4.00;;
3779;SDS011;1905;52.482;9.802;2022-12-18T05:14:52;5.50;;;3.47;;
3779;SDS011;1905;52.482;9.802;2022-12-18T05:17:19;7.50;;;3.27;;
3779;SDS011;1905;52.482;9.802;2022-12-18T05:19:47;3.40;;;3.10;;
3779;SDS011;1905;52.482;9.802;2022-12-18T05:22:16;7.03;;;4.60;;
3779;SDS011;1905;52.482;9.802;2022-12-18T05:24:43;6.50;;;4.50;;
3779;SDS011;1905;52.482;9.802;2022-12-18T05:27:11;5.03;;;4.60;;
3779;SDS011;1905;52.482;9.802;2022-12-18T05:29:38;7.27;;;3.30;;
3779;SDS011;1905;52.482;9.802;2022-12-18T05:32:06;8.67;;;4.83;;
3779;SDS011;1905;52.482;9.802;2022-12-18T05:34:33;7.30;;;4.27;;
3779;SDS011;1905;52.482;9.802;2022-12-18T05:37:01;2.93;;;2.70;;
3779;SDS011;1905;52.482;9.802;2022-12-18T05:39:30;3.43;;;2.80;;
3779;SDS011;1905;52.482;9.802;2022-12-18T05:41:57;5.23;;;3.20;;
3779;SDS011;1905;52.482;9.802;2022-12-18T05:44:25;3.57;;;3.00;;
3779;SDS011;1905;52.482;9.802;2022-12-18T05:46:53;9.70;;;5.10;;
3779;SDS011;1905;52.482;9.802;2022-12-18T05:49:20;5.90;;;4.00;;
3779;SDS011;1905;52.482;9.802;2022-12-18T05:51:48;3.07;;;2.50;;
3779;SDS011;1905;52.482;9.802;2022-12-18T05:54:16;5.07;;;4.00;;
3779;SDS011;1905;52.482;9.802;2022-12-18T05:56:45;7.73;;;2.90;;
3779;SDS011;1905;52.482;9.802;2022-12-18T05:59:14;4.07;;;3.67;;
3779;SDS011;1905;52.482;9.802;2022-12-18T06:01:41;3.37;;;3.07;;
3779;SDS011;1905;52.482;9.802;2022-12-18T06:04:09;9.43;;;5.03;;
3779;SDS011;1905;52.482;9.802;2022-12-18T06:06:37;3.17;;;2.70;;
3779;SDS011;1905;52.482;9.802;2022-12-18T06:09:05;7.43;;;5.10;;
3779;SDS011;1905;52.482;9.802;2022-12-18T06:11:34;2.93;;;2.73;;
3779;SDS011;1905;52.482;9.802;2022-12-18T06:14:05;4.10;;;3.80;;
3779;SDS011;1905;52.482;9.802;2022-12-18T06:16:33;3.10;;;2.90;;
3779;SDS011;1905;52.482;9.802;2022-12-18T06:19:01;5.30;;;3.53;;
3779;SDS011;1905;52.482;9.802;2022-12-18T06:21:31;7.20;;;3.67;;
3779;SDS011;1905;52.482;9.802;2022-12-18T06:24:00;5.07;;;3.33;;
3779;SDS011;1905;52.482;9.802;2022-12-18T06:26:28;11.23;;;3.50;;
3779;SDS011;1905;52.482;9.802;2022-12-18T06:28:55;4.93;;;4.53;;
3779;SDS011;1905;52.482;9.802;2022-12-18T06:31:25;3.67;;;3.20;;
3779;SDS011;1905;52.482;9.802;2022-12-18T06:33:54;6.37;;;3.83;;
3779;SDS011;1905;52.482;9.802;2022-12-18T06:36:21;8.43;;;3.17;;
3779;SDS011;1905;52.482;9.802;2022-12-18T06:38:49;4.30;;;2.87;;
3779;SDS011;1905;52.482;9.802;2022-12-18T06:41:17;3.43;;;3.03;;
3779;SDS011;1905;52.482;9.802;2022-12-18T06:43:47;6.80;;;4.00;;
3779;SDS011;1905;52.482;9.802;2022-12-18T06:46:14;3.07;;;2.87;;
3779;SDS011;1905;52.482;9.802;2022-12-18T06:48:46;3.80;;;3.43;;
3779;SDS011;1905;52.482;9.802;2022-12-18T06:51:15;11.03;;;3.30;;
3779;SDS011;1905;52.482;9.802;2022-12-18T06:53:43;4.33;;;4.00;;
3779;SDS011;1905;52.482;9.802;2022-12-18T06:56:11;4.30;;;3.20;;
3779;SDS011;1905;52.482;9.802;2022-12-18T06:58:39;5.97;;;3.03;;
3779;SDS011;1905;52.482;9.802;2022-12-18T07:01:08;4.00;;;3.80;;
3779;SDS011;1905;52.482;9.802;2022-12-18T07:03:37;5.07;;;3.10;;
3779;SDS011;1905;52.482;9.802;2022-12-18T07:06:11;2.93;;;2.33;;
3779;SDS011;1905;52.482;9.802;2022-12-18T07:08:41;7.93;;;3.03;;
3779;SDS011;1905;52.482;9.802;2022-12-18T07:11:09;6.40;;;3.43;;
3779;SDS011;1905;52.482;9.802;2022-12-18T07:13:37;3.27;;;2.97;;
3779;SDS011;1905;52.482;9.802;2022-12-18T07:16:06;4.33;;;4.00;;
3779;SDS011;1905;52.482;9.802;2022-12-18T07:18:43;8.00;;;3.57;;
3779;SDS011;1905;52.482;9.802;2022-12-18T07:21:13;3.30;;;3.10;;
3779;SDS011;1905;52.482;9.802;2022-12-18T07:23:42;8.60;;;6.00;;
3779;SDS011;1905;52.482;9.802;2022-12-18T07:26:11;8.80;;;4.00;;
3779;SDS011;1905;52.482;9.802;2022-12-18T07:28:40;4.20;;;3.53;;
3779;SDS011;1905;52.482;9.802;2022-12-18T07:31:09;4.67;;;2.77;;
3779;SDS011;1905;52.482;9.802;2022-12-18T07:33:38;5.37;;;3.90;;
3779;SDS011;1905;52.482;9.802;2022-12-18T07:36:07;11.03;;;2.90;;
3779;SDS011;1905;52.482;9.802;2022-12-18T07:38:37;5.70;;;4.60;;
3779;SDS011;1905;52.482;9.802;2022-12-18T07:41:06;6.23;;;3.77;;
3779;SDS011;1905;52.482;9.802;2022-12-18T07:43:35;2.83;;;2.23;;
3779;SDS011;1905;52.482;9.802;2022-12-18T07:46:03;30.83;;;4.33;;
3779;SDS011;1905;52.482;9.802;2022-12-18T07:48:31;7.97;;;3.47;;
3779;SDS011;1905;52.482;9.802;2022-12-18T07:50:59;3.37;;;3.17;;
3779;SDS011;1905;52.482;9.802;2022-12-18T07:53:27;4.63;;;2.83;;
3779;SDS011;1905;52.482;9.802;2022-12-18T07:55:56;6.97;;;3.70;;
3779;SDS011;1905;52.482;9.802;2022-12-18T07:58:44;9.60;;;3.70;;
3779;SDS011;1905;52.482;9.802;2022-12-18T08:01:13;3.80;;;3.50;;
3779;SDS011;1905;52.482;9.802;2022-12-18T08:03:42;6.33;;;2.60;;
3779;SDS011;1905;52.482;9.802;2022-12-18T08:06:09;5.80;;;3.73;;
3779;SDS011;1905;52.482;9.802;2022-12-18T08:08:37;3.77;;;3.47;;
3779;SDS011;1905;52.482;9.802;2022-12-18T08:11:08;4.80;;;2.33;;
3779;SDS011;1905;52.482;9.802;2022-12-18T08:13:35;4.60;;;3.93;;
3779;SDS011;1905;52.482;9.802;2022-12-18T08:16:04;10.33;;;4.47;;
3779;SDS011;1905;52.482;9.802;2022-12-18T08:18:34;8.07;;;3.93;;
3779;SDS011;1905;52.482;9.802;2022-12-18T08:21:08;7.77;;;6.27;;
3779;SDS011;1905;52.482;9.802;2022-12-18T08:23:36;3.40;;;3.03;;
3779;SDS011;1905;52.482;9.802;2022-12-18T08:26:10;9.00;;;4.37;;
3779;SDS011;1905;52.482;9.802;2022-12-18T08:28:38;8.00;;;6.40;;
3779;SDS011;1905;52.482;9.802;2022-12-18T08:31:07;6.03;;;4.93;;
3779;SDS011;1905;52.482;9.802;2022-12-18T08:33:35;5.37;;;4.23;;
3779;SDS011;1905;52.482;9.802;2022-12-18T08:36:07;5.70;;;5.07;;
3779;SDS011;1905;52.482;9.802;2022-12-18T08:38:36;9.67;;;4.27;;
3779;SDS011;1905;52.482;9.802;2022-12-18T08:41:04;8.13;;;3.77;;
3779;SDS011;1905;52.482;9.802;2022-12-18T08:43:35;13.43;;;4.47;;
3779;SDS011;1905;52.482;9.802;2022-12-18T08:46:21;4.03;;;3.73;;
3779;SDS011;1905;52.482;9.802;2022-12-18T08:48:51;7.60;;;6.10;;
3779;SDS011;1905;52.482;9.802;2022-12-18T08:51:19;6.27;;;4.70;;
3779;SDS011;1905;52.482;9.802;2022-12-18T08:53:47;4.83;;;4.27;;
3779;SDS011;1905;52.482;9.802;2022-12-18T08:56:15;5.70;;;3.80;;
3779;SDS011;1905;52.482;9.802;2022-12-18T08:58:44;5.30;;;4.80;;
3779;SDS011;1905;52.482;9.802;2022-12-18T09:01:12;3.40;;;3.10;;
3779;SDS011;1905;52.482;9.802;2022-12-18T09:03:40;6.10;;;4.30;;
3779;SDS011;1905;52.482;9.802;2022-12-18T09:06:12;6.67;;;5.60;;
3779;SDS011;1905;52.482;9.802;2022-12-18T09:08:41;7.17;;;4.83;;
3779;SDS011;1905;52.482;9.802;2022-12-18T09:11:11;4.43;;;4.03;;
3779;SDS011;1905;52.482;9.802;2022-12-18T09:13:41;3.73;;;3.43;;
3779;SDS011;1905;52.482;9.802;2022-12-18T09:16:10;5.73;;;4.10;;
3779;SDS011;1905;52.482;9.802;2022-12-18T09:18:37;4.47;;;3.80;;
3779;SDS011;1905;52.482;9.802;2022-12-18T09:21:09;9.60;;;6.20;;
3779;SDS011;1905;52.482;9.802;2022-12-18T09:23:39;7.67;;;4.73;;
3779;SDS011;1905;52.482;9.802;2022-12-18T09:26:07;12.93;;;5.90;;
3779;SDS011;1905;52.482;9.802;2022-12-18T09:28:34;6.73;;;4.90;;
3779;SDS011;1905;52.482;9.802;2022-12-18T09:31:03;7.13;;;5.27;;
3779;SDS011;1905;52.482;9.802;2022-12-18T09:33:35;14.33;;;6.00;;
3779;SDS011;1905;52.482;9.802;2022-12-18T09:36:04;9.00;;;5.90;;
3779;SDS011;1905;52.482;9.802;2022-12-18T09:38:34;13.50;;;6.43;;
3779;SDS011;1905;52.482;9.802;2022-12-18T09:41:03;5.70;;;4.87;;
3779;SDS011;1905;52.482;9.802;2022-12-18T09:43:42;12.50;;;6.87;;
3779;SDS011;1905;52.482;9.802;2022-12-18T09:46:15;7.23;;;5.23;;
3779;SDS011;1905;52.482;9.802;2022-12-18T09:48:49;6.37;;;4.67;;
3779;SDS011;1905;52.482;9.802;2022-12-18T09:51:20;9.27;;;5.67;;
3779;SDS011;1905;52.482;9.802;2022-12-18T09:53:53;12.10;;;6.00;;
3779;SDS011;1905;52.482;9.802;2022-12-18T09:56:25;12.80;;;8.57;;
3779;SDS011;1905;52.482;9.802;2022-12-18T09:58:57;15.97;;;7.40;;
3779;SDS011;1905;52.482;9.802;2022-12-18T10:01:26;22.83;;;7.20;;
3779;SDS011;1905;52.482;9.802;2022-12-18T10:04:09;29.07;;;5.67;;
3779;SDS011;1905;52.482;9.802;2022-12-18T10:06:39;11.30;;;6.00;;
3779;SDS011;1905;52.482;9.802;2022-12-18T10:09:15;6.93;;;4.80;;
3779;SDS011;1905;52.482;9.802;2022-12-18T10:11:53;7.53;;;6.77;;
3779;SDS011;1905;52.482;9.802;2022-12-18T10:14:29;13.07;;;5.20;;
3779;SDS011;1905;52.482;9.802;2022-12-18T10:17:02;11.60;;;7.10;;
3779;SDS011;1905;52.482;9.802;2022-12-18T10:19:45;6.87;;;5.90;;
3779;SDS011;1905;52.482;9.802;2022-12-18T10:22:26;7.13;;;6.23;;
3779;SDS011;1905;52.482;9.802;2022-12-18T10:25:21;19.57;;;7.67;;
3779;SDS011;1905;52.482;9.802;2022-12-18T10:27:53;11.10;;;7.27;;
3779;SDS011;1905;52.482;9.802;2022-12-18T10:30:23;12.17;;;7.53;;
3779;SDS011;1905;52.482;9.802;2022-12-18T10:32:52;14.10;;;7.50;;
3779;SDS011;1905;52.482;9.802;2022-12-18T10:35:22;10.40;;;5.90;;
3779;SDS011;1905;52.482;9.802;2022-12-18T10:38:05;9.80;;;6.57;;
3779;SDS011;1905;52.482;9.802;2022-12-18T10:40:47;12.23;;;6.17;;
3779;SDS011;1905;52.482;9.802;2022-12-18T10:43:20;14.40;;;7.60;;
3779;SDS011;1905;52.482;9.802;2022-12-18T10:46:02;12.67;;;7.20;;
3779;SDS011;1905;52.482;9.802;2022-12-18T10:48:41;6.50;;;5.27;;
3779;SDS011;1905;52.482;9.802;2022-12-18T10:51:22;12.13;;;6.30;;
3779;SDS011;1905;52.482;9.802;2022-12-18T10:53:56;14.87;;;6.60;;
3779;SDS011;1905;52.482;9.802;2022-12-18T10:56:29;11.80;;;7.97;;
3779;SDS011;1905;52.482;9.802;2022-12-18T10:58:59;19.17;;;6.63;;
3779;SDS011;1905;52.482;9.802;2022-12-18T11:01:31;12.43;;;9.73;;
3779;SDS011;1905;52.482;9.802;2022-12-18T11:04:15;15.40;;;6.87;;
3779;SDS011;1905;52.482;9.802;2022-12-18T11:06:54;11.53;;;7.27;;
3779;SDS011;1905;52.482;9.802;2022-12-18T11:09:24;8.07;;;4.93;;
3779;SDS011;1905;52.482;9.802;2022-12-18T11:11:54;18.23;;;7.90;;
3779;SDS011;1905;52.482;9.802;2022-12-18T11:14:24;12.60;;;7.53;;
3779;SDS011;1905;52.482;9.802;2022-12-18T11:16:53;10.30;;;7.70;;
3779;SDS011;1905;52.482;9.802;2022-12-18T11:19:42;11.13;;;5.97;;
3779;SDS011;1905;52.482;9.802;2022-12-18T11:22:19;12.93;;;5.97;;
3779;SDS011;1905;52.482;9.802;2022-12-18T11:24:52;15.03;;;6.70;;
3779;SDS011;1905;52.482;9.802;2022-12-18T11:27:47;10.13;;;6.27;;
3779;SDS011;1905;52.482;9.802;2022-12-18T11:30:20;19.27;;;8.30;;
3779;SDS011;1905;52.482;9.802;2022-12-18T11:32:49;9.20;;;6.73;;
3779;SDS011;1905;52.482;9.802;2022-12-18T11:35:21;14.50;;;6.87;;
3779;SDS011;1905;52.482;9.802;2022-12-18T11:37:57;14.57;;;7.33;;
3779;SDS011;1905;52.482;9.802;2022-12-18T11:40:32;13.90;;;8.13;;
3779;SDS011;1905;52.482;9.802;2022-12-18T11:43:08;13.43;;;8.30;;
3779;SDS011;1905;52.482;9.802;2022-12-18T11:45:40;9.83;;;6.33;;
3779;SDS011;1905;52.482;9.802;2022-12-18T11:48:14;15.13;;;8.17;;
3779;SDS011;1905;52.482;9.802;2022-12-18T11:50:47;16.63;;;9.47;;
3779;SDS011;1905;52.482;9.802;2022-12-18T11:53:18;21.90;;;10.20;;
3779;SDS011;1905;52.482;9.802;2022-12-18T11:55:49;16.47;;;7.60;;
3779;SDS011;1905;52.482;9.802;2022-12-18T11:58:30;13.27;;;8.67;;
3779;SDS011;1905;52.482;9.802;2022-12-18T12:01:10;26.97;;;7.80;;
3779;SDS011;1905;52.482;9.802;2022-12-18T12:03:48;12.53;;;7.93;;
3779;SDS011;1905;52.482;9.802;2022-12-18T12:06:28;13.87;;;7.77;;
3779;SDS011;1905;52.482;9.802;2022-12-18T12:09:07;16.07;;;9.17;;
3779;SDS011;1905;52.482;9.802;2022-12-18T12:11:44;18.83;;;9.60;;
3779;SDS011;1905;52.482;9.802;2022-12-18T12:14:23;13.17;;;8.30;;
3779;SDS011;1905;52.482;9.802;2022-12-18T12:17:03;12.43;;;7.27;;
3779;SDS011;1905;52.482;9.802;2022-12-18T12:19:41;15.67;;;7.83;;
3779;SDS011;1905;52.482;9.802;2022-12-18T12:22:18;14.37;;;7.70;;
3779;SDS011;1905;52.482;9.802;2022-12-18T12:24:57;9.47;;;7.27;;
3779;SDS011;1905;52.482;9.802;2022-12-18T12:27:37;13.90;;;7.43;;
3779;SDS011;1905;52.482;9.802;2022-12-18T12:30:16;9.57;;;7.10;;
3779;SDS011;1905;52.482;9.802;2022-12-18T12:32:55;10.27;;;6.30;;
3779;SDS011;1905;52.482;9.802;2022-12-18T12:35:33;9.20;;;6.33;;
3779;SDS011;1905;52.482;9.802;2022-12-18T12:38:12;18.80;;;7.03;;
3779;SDS011;1905;52.482;9.802;2022-12-18T12:40:45;7.13;;;5.50;;
3779;SDS011;1905;52.482;9.802;2022-12-18T12:43:28;10.13;;;6.10;;
3779;SDS011;1905;52.482;9.802;2022-12-18T12:46:03;16.73;;;8.23;;
3779;SDS011;1905;52.482;9.802;2022-12-18T12:48:35;10.13;;;7.20;;
3779;SDS011;1905;52.482;9.802;2022-12-18T12:51:16;17.23;;;10.80;;
3779;SDS011;1905;52.482;9.802;2022-12-18T12:53:47;13.27;;;7.80;;
3779;SDS011;1905;52.482;9.802;2022-12-18T12:56:18;15.20;;;7.87;;
3779;SDS011;1905;52.482;9.802;2022-12-18T12:58:51;13.03;;;8.63;;
3779;SDS011;1905;52.482;9.802;2022-12-18T13:01:27;12.77;;;6.70;;
3779;SDS011;1905;52.482;9.802;2022-12-18T13:04:03;13.83;;;6.97;;
3779;SDS011;1905;52.482;9.802;2022-12-18T13:06:43;12.07;;;8.00;;
3779;SDS011;1905;52.482;9.802;2022-12-18T13:09:15;16.13;;;7.93;;
3779;SDS011;1905;52.482;9.802;2022-12-18T13:11:44;21.03;;;9.50;;
3779;SDS011;1905;52.482;9.802;2022-12-18T13:14:30;13.60;;;8.90;;
3779;SDS011;1905;52.482;9.802;2022-12-18T13:17:15;18.10;;;8.13;;
3779;SDS011;1905;52.482;9.802;2022-12-18T13:19:47;10.10;;;6.73;;
3779;SDS011;1905;52.482;9.802;2022-12-18T13:22:21;11.03;;;8.00;;
3779;SDS011;1905;52.482;9.802;2022-12-18T13:24:50;16.53;;;6.87;;
3779;SDS011;1905;52.482;9.802;2022-12-18T13:30:41;12.30;;;7.57;;
3779;SDS011;1905;52.482;9.802;2022-12-18T13:36:28;15.07;;;7.77;;
3779;SDS011;1905;52.482;9.802;2022-12-18T13:45:37;11.73;;;8.07;;
3779;SDS011;1905;52.482;9.802;2022-12-18T13:48:17;11.67;;;6.17;;
3779;SDS011;1905;52.482;9.802;2022-12-18T13:50:48;15.60;;;9.03;;
3779;SDS011;1905;52.482;9.802;2022-12-18T13:53:20;10.30;;;7.37;;
3779;SDS011;1905;52.482;9.802;2022-12-18T13:55:51;8.60;;;6.57;;
3779;SDS011;1905;52.482;9.802;2022-12-18T13:58:19;17.90;;;7.23;;
3779;SDS011;1905;52.482;9.802;2022-12-18T14:00:49;11.33;;;6.10;;
3779;SDS011;1905;52.482;9.802;2022-12-18T14:03:19;18.50;;;9.00;;
3779;SDS011;1905;52.482;9.802;2022-12-18T14:05:52;14.07;;;6.87;;
3779;SDS011;1905;52.482;9.802;2022-12-18T14:08:24;25.70;;;9.27;;
3779;SDS011;1905;52.482;9.802;2022-12-18T14:10:57;13.63;;;8.70;;
3779;SDS011;1905;52.482;9.802;2022-12-18T14:13:26;10.23;;;7.87;;
3779;SDS011;1905;52.482;9.802;2022-12-18T14:15:57;15.83;;;8.87;;
3779;SDS011;1905;52.482;9.802;2022-12-18T14:18:31;18.50;;;9.03;;
3779;SDS011;1905;52.482;9.802;2022-12-18T14:21:06;11.37;;;7.27;;
3779;SDS011;1905;52.482;9.802;2022-12-18T14:23:45;18.60;;;7.70;;
3779;SDS011;1905;52.482;9.802;2022-12-18T14:26:20;16.83;;;8.37;;
3779;SDS011;1905;52.482;9.802;2022-12-18T14:28:50;21.10;;;8.40;;
3779;SDS011;1905;52.482;9.802;2022-12-18T14:31:21;14.80;;;7.23;;
3779;SDS011;1905;52.482;9.802;2022-12-18T14:33:51;15.73;;;9.30;;
3779;SDS011;1905;52.482;9.802;2022-12-18T14:36:19;16.63;;;8.43;;
3779;SDS011;1905;52.482;9.802;2022-12-18T14:38:49;19.90;;;9.00;;
3779;SDS011;1905;52.482;9.802;2022-12-18T14:41:20;15.00;;;8.37;;
3779;SDS011;1905;52.482;9.802;2022-12-18T14:43:49;15.90;;;6.37;;
3779;SDS011;1905;52.482;9.802;2022-12-18T14:46:32;16.23;;;8.57;;
3779;SDS011;1905;52.482;9.802;2022-12-18T14:49:03;13.67;;;7.10;;
3779;SDS011;1905;52.482;9.802;2022-12-18T14:51:42;15.13;;;8.37;;
3779;SDS011;1905;52.482;9.802;2022-12-18T14:54:16;14.03;;;8.50;;
3779;SDS011;1905;52.482;9.802;2022-12-18T14:56:45;12.43;;;7.73;;
3779;SDS011;1905;52.482;9.802;2022-12-18T14:59:15;19.60;;;9.37;;
3779;SDS011;1905;52.482;9.802;2022-12-18T15:01:54;13.50;;;9.20;;
3779;SDS011;1905;52.482;9.802;2022-12-18T15:04:28;15.10;;;9.60;;
3779;SDS011;1905;52.482;9.802;2022-12-18T15:07:04;13.80;;;8.57;;
3779;SDS011;1905;52.482;9.802;2022-12-18T15:09:36;18.03;;;10.70;;
3779;SDS011;1905;52.482;9.802;2022-12-18T15:12:15;13.90;;;8.13;;
3779;SDS011;1905;52.482;9.802;2022-12-18T15:14:51;13.23;;;7.67;;
3779;SDS011;1905;52.482;9.802;2022-12-18T15:17:21;14.73;;;9.13;;
3779;SDS011;1905;52.482;9.802;2022-12-18T15:19:52;15.10;;;9.87;;
3779;SDS011;1905;52.482;9.802;2022-12-18T15:22:27;20.40;;;10.13;;
3779;SDS011;1905;52.482;9.802;2022-12-18T15:24:56;18.10;;;10.13;;
3779;SDS011;1905;52.482;9.802;2022-12-18T15:27:27;20.37;;;9.70;;
3779;SDS011;1905;52.482;9.802;2022-12-18T15:32:46;23.33;;;9.80;;
3779;SDS011;1905;52.482;9.802;2022-12-18T15:35:16;17.53;;;8.27;;
3779;SDS011;1905;52.482;9.802;2022-12-18T15:37:45;15.77;;;8.47;;
3779;SDS011;1905;52.482;9.802;2022-12-18T15:40:14;14.90;;;9.90;;
3779;SDS011;1905;52.482;9.802;2022-12-18T15:42:42;17.30;;;9.00;;
3779;SDS011;1905;52.482;9.802;2022-12-18T15:45:28;14.20;;;9.47;;
3779;SDS011;1905;52.482;9.802;2022-12-18T15:47:57;18.60;;;8.60;;
3779;SDS011;1905;52.482;9.802;2022-12-18T15:50:25;18.77;;;8.97;;
3779;SDS011;1905;52.482;9.802;2022-12-18T15:52:54;13.37;;;9.57;;
3779;SDS011;1905;52.482;9.802;2022-12-18T15:55:22;17.97;;;8.47;;
3779;SDS011;1905;52.482;9.802;2022-12-18T15:58:09;14.50;;;9.57;;